Aérodrome :
LOGIN :

S'inscrire | Disclaimer

   EN    FR    IT 

 










Légende :    VFR   VFR Marginal   IFR   IFR Intensif   IFR Très Intensif
Visi : 
Plafond : 
>= 8 km
>= 3000ft
5 à 8 km
1000 à 3000 ft
1500m à 5 km
500 à 1000 ft
800 à 1500m
200 à 500 ft
< 800m
< 200 ft
Symboles :   Orages  Brouillard  Fortes neiges  Fortes précipitations  Vent > 20 kt
SIGMETs :   Divers  Orages  Givrage  Turbulence  Onde Orograph.  Cendres Volcan.






- Altitude de l'aérodrome : 174 ft
- Code IATA : RYG


ENRY - Moss , Rygge

DERNIER METAR :
  • 142020Z AUTO 15007KT 9999NDV SCT006/// BKN014/// OVC018/// 15/14 Q1009

METARs EXPIRÉS :
  • 141950Z AUTO 13005KT 9000NDV FEW006/// BKN009/// OVC018/// 15/14 Q1009 REDZ
  • 141920Z AUTO 14004KT 9999NDV -RA FEW014/// SCT017/// BKN021/// 15/13 Q1009
  • 141850Z AUTO 16004KT 9999NDV FEW010/// OVC022/// 16/13 Q1009
  • 141820Z AUTO 16006KT 9999NDV BKN011/// OVC017/// 16/13 Q1009
  • 141750Z 17008KT 9999 BKN010 16/13 Q1009

TAF TAF ENRY
Valide du 14 à 18h jusqu'au 15 à 18h UTC


1418/1518 16008KT 9999 FEW008 BKN020
TEMPO 1418/1514 4000 SHRA BR BKN008 SCT020CB
PROB30
TEMPO 1419/1423 2000 TSRA



MET'MAP, la Météo Aéronautique d'un coup d'oeil ! - Copyright ORBIFLY Décembre 2007 - Disclaimer

ORBIFLY MET'MAP TEAM :

Programmation & Développement : Alexandra Zaïnal
Sur une idée originale de : Baudouin d'Aumeries
Assistance à la programmation : Marc-Olivier Méhu
Soutien technique & logistique : Manuel Goepfert

Contact : metmap@orbifly.com




SOURCES & CREDITS :

   NOAA